createdAt,value
2022-10-08T00:01:19.850Z,98.10
2022-10-08T00:03:51.173Z,98.10
2022-10-08T00:06:21.033Z,98.20
2022-10-08T00:08:54.283Z,98.30
2022-10-08T00:11:24.792Z,98.40
2022-10-08T00:13:53.498Z,98.40
2022-10-08T00:16:24.397Z,98.50
2022-10-08T00:18:54.919Z,98.60
2022-10-08T00:21:25.747Z,98.60
2022-10-08T00:23:53.507Z,98.60
2022-10-08T00:26:25.960Z,98.60
2022-10-08T00:28:57.068Z,98.50
2022-10-08T00:31:27.850Z,98.60
2022-10-08T00:33:57.614Z,98.60
2022-10-08T00:36:27.788Z,98.70
2022-10-08T00:39:08.908Z,98.70
2022-10-08T00:41:38.531Z,98.70
2022-10-08T00:44:42.820Z,98.60
2022-10-08T00:47:33.319Z,98.60
2022-10-08T00:50:23.634Z,98.60
2022-10-08T00:52:55.632Z,98.50
2022-10-08T00:55:25.375Z,98.50
2022-10-08T00:57:53.234Z,98.40
2022-10-08T01:00:23.860Z,98.50
2022-10-08T01:02:52.193Z,98.50
2022-10-08T01:05:44.397Z,98.50
2022-10-08T01:08:23.424Z,98.40
2022-10-08T01:11:00.646Z,98.50
2022-10-08T01:13:42.996Z,98.40
2022-10-08T01:16:35.942Z,98.30
2022-10-08T01:19:27.089Z,98.20
2022-10-08T01:21:54.361Z,98.20
2022-10-08T01:24:44.626Z,98.20
2022-10-08T01:27:50.573Z,98.40
2022-10-08T01:30:19.162Z,98.30
2022-10-08T01:33:01.494Z,98.30
2022-10-08T01:35:32.051Z,98.40
2022-10-08T01:38:03.554Z,98.50
2022-10-08T01:40:37.923Z,98.60
2022-10-08T01:43:08.231Z,98.70
2022-10-08T01:45:40.115Z,98.60
2022-10-08T01:48:14.882Z,98.60
2022-10-08T01:50:53.513Z,98.60
2022-10-08T01:53:24.547Z,98.60
2022-10-08T01:55:54.851Z,98.40
2022-10-08T01:58:31.278Z,98.40
2022-10-08T02:01:09.007Z,98.40
2022-10-08T02:03:36.459Z,98.40
2022-10-08T02:06:05.373Z,98.10
2022-10-08T02:08:33.008Z,97.80
2022-10-08T02:11:00.289Z,97.70
2022-10-08T02:13:27.917Z,97.80
2022-10-08T02:16:07.073Z,98.00
2022-10-08T02:18:52.816Z,98.10
2022-10-08T02:21:24.677Z,98.60
2022-10-08T02:24:04.152Z,98.30
2022-10-08T02:26:40.430Z,98.30
2022-10-08T02:29:16.472Z,98.30
2022-10-08T02:31:52.483Z,98.50
2022-10-08T02:34:28.728Z,98.30
2022-10-08T02:37:07.810Z,98.20
2022-10-08T02:39:38.516Z,98.30
2022-10-08T02:42:11.125Z,98.20
2022-10-08T02:45:00.356Z,98.40
2022-10-08T02:47:32.441Z,98.10
2022-10-08T02:50:04.935Z,98.10
2022-10-08T02:52:37.056Z,97.90
2022-10-08T02:55:14.682Z,97.70
2022-10-08T02:57:48.816Z,97.40
2022-10-08T03:00:16.092Z,97.30
2022-10-08T03:02:52.472Z,97.40
2022-10-08T03:05:20.494Z,97.50
2022-10-08T03:07:50.774Z,97.60
2022-10-08T03:10:19.773Z,97.70
2022-10-08T03:12:47.694Z,97.80
2022-10-08T03:15:15.237Z,97.70
2022-10-08T03:17:46.365Z,97.70
2022-10-08T03:20:14.146Z,97.50
2022-10-08T03:22:41.590Z,97.30
2022-10-08T03:25:09.142Z,97.20
2022-10-08T03:27:36.429Z,97.10
2022-10-08T03:30:04.907Z,97.00
2022-10-08T03:32:32.124Z,97.00
2022-10-08T03:34:59.405Z,97.10
2022-10-08T03:37:26.629Z,97.30
2022-10-08T03:39:53.846Z,97.40
2022-10-08T03:42:21.245Z,97.60
2022-10-08T03:44:48.463Z,97.60
2022-10-08T03:47:15.840Z,97.80
2022-10-08T03:49:43.051Z,97.90
2022-10-08T03:52:10.513Z,97.80
2022-10-08T03:54:37.809Z,97.90
2022-10-08T03:57:05.087Z,97.90
2022-10-08T03:59:32.744Z,98.00
2022-10-08T04:02:00.037Z,98.20
2022-10-08T04:04:27.430Z,98.50
2022-10-08T04:06:54.785Z,98.30
2022-10-08T04:09:22.004Z,98.20
2022-10-08T04:11:49.222Z,98.10
2022-10-08T04:14:16.454Z,98.00
2022-10-08T04:16:43.684Z,97.90
2022-10-08T04:19:12.260Z,98.10
2022-10-08T04:21:39.624Z,98.40
2022-10-08T04:24:07.272Z,98.50
2022-10-08T04:26:34.495Z,98.50
2022-10-08T04:29:01.878Z,98.20
2022-10-08T04:31:29.181Z,97.90
2022-10-08T04:33:56.842Z,97.70
2022-10-08T04:36:25.040Z,97.60
2022-10-08T04:38:52.712Z,97.50
2022-10-08T04:41:27.074Z,97.50
2022-10-08T04:43:58.287Z,97.60
2022-10-08T04:46:25.557Z,97.70
2022-10-08T04:48:54.774Z,97.80
2022-10-08T04:51:24.793Z,98.00
2022-10-08T04:53:52.714Z,98.00
2022-10-08T04:56:23.747Z,98.00
2022-10-08T04:58:51.789Z,98.00
2022-10-08T05:01:20.468Z,98.00
2022-10-08T05:03:50.118Z,98.00
2022-10-08T05:06:19.042Z,98.10
2022-10-08T05:08:47.050Z,98.10
2022-10-08T05:11:15.228Z,98.00
2022-10-08T05:13:43.145Z,98.00
2022-10-08T05:16:13.113Z,98.00
2022-10-08T05:18:41.907Z,98.00
2022-10-08T05:21:12.845Z,98.00
2022-10-08T05:23:40.528Z,98.20
2022-10-08T05:26:56.970Z,98.40
2022-10-08T05:29:23.143Z,98.50
2022-10-08T05:31:50.396Z,98.60
2022-10-08T05:34:17.972Z,98.60
2022-10-08T05:36:45.418Z,98.60
2022-10-08T05:39:12.633Z,98.80
2022-10-08T05:41:40.543Z,98.80
2022-10-08T05:44:09.859Z,98.80
2022-10-08T05:46:38.004Z,98.80
2022-10-08T05:49:08.220Z,98.80
2022-10-08T05:51:36.289Z,98.80
2022-10-08T05:54:03.619Z,98.80
2022-10-08T05:56:31.830Z,98.60
2022-10-08T05:58:59.276Z,98.50
2022-10-08T06:01:29.145Z,98.50
2022-10-08T06:03:58.478Z,98.40
2022-10-08T06:06:26.732Z,98.30
2022-10-08T06:08:56.076Z,98.20
2022-10-08T06:11:23.325Z,98.20
2022-10-08T06:13:54.611Z,98.20
2022-10-08T06:16:22.639Z,98.20
2022-10-08T06:18:50.449Z,98.10
2022-10-08T06:21:20.497Z,97.90
2022-10-08T06:23:54.125Z,97.70
2022-10-08T06:26:23.187Z,97.60
2022-10-08T06:28:50.530Z,97.50
2022-10-08T06:31:17.973Z,97.30
2022-10-08T06:33:45.971Z,97.20
2022-10-08T06:36:23.748Z,97.10
2022-10-08T06:38:58.845Z,97.00
2022-10-08T06:41:27.447Z,96.80
2022-10-08T06:43:55.647Z,96.60
2022-10-08T06:46:23.246Z,96.50
2022-10-08T06:48:50.518Z,96.40
2022-10-08T06:51:18.898Z,96.30
2022-10-08T07:02:11.218Z,95.80
2022-10-08T07:04:38.484Z,95.70
2022-10-08T07:07:05.716Z,95.50
2022-10-08T07:09:32.980Z,95.40
2022-10-08T07:12:00.200Z,95.70
2022-10-08T07:14:27.419Z,95.30
2022-10-08T07:16:54.789Z,95.20
2022-10-08T07:19:23.264Z,95.00
2022-10-08T07:21:50.940Z,95.10
2022-10-08T07:24:18.147Z,94.90
2022-10-08T07:26:45.478Z,94.80
2022-10-08T07:29:14.480Z,94.80
2022-10-08T07:31:41.772Z,94.90
2022-10-08T07:34:12.314Z,94.80
2022-10-08T07:36:40.214Z,94.90
2022-10-08T07:39:13.828Z,94.70
2022-10-08T07:41:41.803Z,94.50
2022-10-08T07:44:12.028Z,94.30
2022-10-08T07:46:46.726Z,94.20
2022-10-08T07:49:14.946Z,94.40
2022-10-08T07:51:42.370Z,94.30
2022-10-08T07:54:14.539Z,94.40
2022-10-08T07:56:41.787Z,94.50
2022-10-08T07:59:09.263Z,94.40
2022-10-08T08:01:36.565Z,94.30
2022-10-08T08:04:06.816Z,94.20
2022-10-08T08:06:39.875Z,94.10
2022-10-08T08:09:07.601Z,93.90
2022-10-08T08:11:34.947Z,93.70
2022-10-08T08:14:02.207Z,93.80
2022-10-08T08:16:29.710Z,93.50
2022-10-08T08:19:02.137Z,93.30
2022-10-08T08:21:32.263Z,93.20
2022-10-08T08:24:06.232Z,93.30
2022-10-08T08:26:36.700Z,93.30
2022-10-08T08:29:10.348Z,93.00
2022-10-08T08:31:43.639Z,93.10
2022-10-08T08:34:17.201Z,93.00
2022-10-08T08:36:46.721Z,92.80
2022-10-08T08:39:17.505Z,92.70
2022-10-08T08:41:53.550Z,92.50
2022-10-08T08:44:24.508Z,92.40
2022-10-08T08:47:00.588Z,92.50
2022-10-08T08:49:32.823Z,92.40
2022-10-08T08:52:03.415Z,92.30
2022-10-08T08:54:31.161Z,92.10
2022-10-08T08:57:25.785Z,92.20
2022-10-08T08:59:56.947Z,92.40
2022-10-08T09:02:35.679Z,92.20
2022-10-08T09:05:12.536Z,92.40
2022-10-08T09:08:10.867Z,92.20
2022-10-08T09:10:42.431Z,92.10
2022-10-08T09:13:31.787Z,92.50
2022-10-08T09:15:59.620Z,92.40
2022-10-08T09:18:26.892Z,92.40
2022-10-08T09:20:54.341Z,92.50
2022-10-08T09:23:23.973Z,92.00
2022-10-08T09:26:08.724Z,91.90
2022-10-08T09:28:46.332Z,91.60
2022-10-08T09:31:49.361Z,91.10
2022-10-08T09:34:18.659Z,90.90
2022-10-08T09:36:50.157Z,90.60
2022-10-08T09:39:24.863Z,90.40
2022-10-08T09:42:06.880Z,90.10
2022-10-08T09:44:49.499Z,90.20
2022-10-08T09:47:19.312Z,89.70
2022-10-08T09:50:02.240Z,89.10
2022-10-08T09:52:29.696Z,88.60
2022-10-08T09:54:59.123Z,87.90
2022-10-08T09:57:26.792Z,88.30
2022-10-08T09:59:59.856Z,88.80
2022-10-08T10:02:32.030Z,88.90
2022-10-08T10:05:01.640Z,88.40
2022-10-08T10:07:42.885Z,88.20
2022-10-08T10:10:22.543Z,88.90
2022-10-08T10:12:55.115Z,88.60
2022-10-08T10:15:28.787Z,88.30
2022-10-08T10:18:01.133Z,88.00
2022-10-08T10:20:31.919Z,88.50
2022-10-08T10:23:06.473Z,88.20
2022-10-08T10:25:57.606Z,88.20
2022-10-08T10:28:48.299Z,88.10
2022-10-08T10:31:24.925Z,88.00
2022-10-08T10:34:25.188Z,88.60
2022-10-08T10:36:57.517Z,88.10
2022-10-08T10:39:27.802Z,87.60
2022-10-08T10:42:17.425Z,87.30
2022-10-08T10:44:54.682Z,87.10
2022-10-08T10:47:29.558Z,87.10
2022-10-08T10:50:01.259Z,86.90
2022-10-08T10:52:39.041Z,86.90
2022-10-08T10:55:06.377Z,86.80
2022-10-08T10:58:05.697Z,86.60
2022-10-08T11:00:51.029Z,86.10
2022-10-08T11:04:08.320Z,86.10
2022-10-08T11:06:53.620Z,86.00
2022-10-08T11:10:12.352Z,85.70
2022-10-08T11:12:59.145Z,85.40
2022-10-08T11:15:59.592Z,85.30
2022-10-08T11:18:40.606Z,85.00
2022-10-08T11:21:19.884Z,85.20
2022-10-08T11:24:02.356Z,85.20
2022-10-08T11:26:35.864Z,84.80
2022-10-08T11:29:18.218Z,84.30
2022-10-08T11:31:48.242Z,84.10
2022-10-08T11:34:31.614Z,83.90
2022-10-08T11:37:22.447Z,83.40
2022-10-08T11:40:11.723Z,83.20
2022-10-08T11:43:02.037Z,83.30
2022-10-08T11:45:33.167Z,83.40
2022-10-08T11:48:21.306Z,83.10
2022-10-08T11:50:48.707Z,83.00
2022-10-08T11:53:22.786Z,82.60
2022-10-08T11:55:56.720Z,82.50
2022-10-08T11:58:30.558Z,81.60
2022-10-08T12:01:07.551Z,81.90
2022-10-08T12:03:38.128Z,82.00
2022-10-08T12:06:26.688Z,82.10
2022-10-08T12:08:58.140Z,82.20
2022-10-08T12:11:31.568Z,82.00
2022-10-08T12:14:11.090Z,81.60
2022-10-08T12:16:47.507Z,81.40
2022-10-08T12:19:35.900Z,81.80
2022-10-08T12:22:25.187Z,81.70
2022-10-08T12:24:57.523Z,81.00
2022-10-08T12:27:31.026Z,80.80
2022-10-08T12:30:07.584Z,80.40
2022-10-08T12:32:44.180Z,80.00
2022-10-08T12:35:24.944Z,79.70
2022-10-08T12:38:16.241Z,79.10
2022-10-08T12:41:05.596Z,79.00
2022-10-08T12:43:57.810Z,78.90
2022-10-08T12:46:32.861Z,78.50
2022-10-08T12:49:18.453Z,78.10
2022-10-08T12:51:57.353Z,78.10
2022-10-08T12:54:27.865Z,77.20
2022-10-08T12:56:55.937Z,77.50
2022-10-08T12:59:26.287Z,77.30
2022-10-08T13:01:54.760Z,77.30
2022-10-08T13:04:29.426Z,77.20
2022-10-08T13:06:57.240Z,77.10
2022-10-08T13:09:28.089Z,77.30
2022-10-08T13:12:02.173Z,77.00
2022-10-08T13:14:35.753Z,76.80
2022-10-08T13:17:04.390Z,77.10
2022-10-08T13:19:40.321Z,77.80
2022-10-08T13:22:24.180Z,77.50
2022-10-08T13:24:51.726Z,77.20
2022-10-08T13:27:27.799Z,77.40
2022-10-08T13:29:59.188Z,76.80
2022-10-08T13:32:35.412Z,76.40
2022-10-08T13:35:05.572Z,76.00
2022-10-08T13:37:38.354Z,76.10
2022-10-08T13:40:19.340Z,76.50
2022-10-08T13:42:56.032Z,76.80
2022-10-08T13:45:25.408Z,77.00
2022-10-08T13:47:53.716Z,77.10
2022-10-08T13:50:22.327Z,77.30
2022-10-08T13:52:55.892Z,77.50
2022-10-08T13:55:33.379Z,77.20
2022-10-08T13:58:02.334Z,77.10
2022-10-08T14:00:31.850Z,77.20
2022-10-08T14:02:59.196Z,77.10
2022-10-08T14:05:28.272Z,76.80
2022-10-08T14:08:00.531Z,77.00
2022-10-08T14:10:27.877Z,76.80
2022-10-08T14:12:55.113Z,76.80
2022-10-08T14:15:22.518Z,76.70
2022-10-08T14:17:50.644Z,77.00
2022-10-08T14:20:17.992Z,77.40
2022-10-08T14:22:45.228Z,77.70
2022-10-08T14:25:18.669Z,78.20
2022-10-08T14:27:46.610Z,78.90
2022-10-08T14:30:15.412Z,79.10
2022-10-08T14:32:43.327Z,79.90
2022-10-08T14:35:11.593Z,79.50
2022-10-08T14:37:39.124Z,79.40
2022-10-08T14:40:09.341Z,79.50
2022-10-08T14:42:36.614Z,79.70
2022-10-08T14:45:04.119Z,79.30
2022-10-08T14:47:31.414Z,78.60
2022-10-08T14:49:58.650Z,78.90
2022-10-08T14:52:25.846Z,78.70
2022-10-08T14:54:53.101Z,78.40
2022-10-08T14:57:20.440Z,78.70
2022-10-08T14:59:47.652Z,78.80
2022-10-08T15:02:15.634Z,79.10
2022-10-08T15:04:42.936Z,79.50
2022-10-08T15:07:10.143Z,79.70
2022-10-08T15:09:40.370Z,80.00
2022-10-08T15:12:08.194Z,80.60
2022-10-08T15:14:38.240Z,81.00
2022-10-08T15:17:05.957Z,81.20
2022-10-08T15:19:33.224Z,81.00
2022-10-08T15:22:00.451Z,81.10
2022-10-08T15:24:27.867Z,81.10
2022-10-08T15:26:55.187Z,81.30
2022-10-08T15:29:22.626Z,81.60
2022-10-08T15:31:51.505Z,82.10
2022-10-08T15:34:20.697Z,82.40
2022-10-08T15:36:48.221Z,82.90
2022-10-08T15:39:19.106Z,83.10
2022-10-08T15:41:48.765Z,83.70
2022-10-08T15:44:23.296Z,83.90
2022-10-08T15:47:01.432Z,84.50
2022-10-08T15:49:37.092Z,85.00
2022-10-08T15:52:06.927Z,85.40
2022-10-08T15:54:38.770Z,85.90
2022-10-08T15:57:07.026Z,86.20
2022-10-08T15:59:34.272Z,86.50
2022-10-08T16:02:02.533Z,86.90
2022-10-08T16:04:30.419Z,87.50
2022-10-08T16:06:58.239Z,87.90
2022-10-08T16:09:25.823Z,88.30
2022-10-08T16:11:53.076Z,88.60
2022-10-08T16:14:23.655Z,88.90
2022-10-08T16:16:51.889Z,89.30
2022-10-08T16:19:22.151Z,89.60
2022-10-08T16:21:51.251Z,90.00
2022-10-08T16:24:18.632Z,90.10
2022-10-08T16:26:47.072Z,90.20
2022-10-08T16:29:16.304Z,90.40
2022-10-08T16:31:45.429Z,90.50
2022-10-08T16:34:21.337Z,90.70
2022-10-08T16:36:49.535Z,91.00
2022-10-08T16:39:19.423Z,91.10
2022-10-08T16:41:47.557Z,91.30
2022-10-08T16:44:18.333Z,91.80
2022-10-08T16:46:50.068Z,91.60
2022-10-08T16:49:25.324Z,91.80
2022-10-08T16:51:56.372Z,92.00
2022-10-08T16:54:24.019Z,92.10
2022-10-08T16:56:51.696Z,92.10
2022-10-08T16:59:22.207Z,92.20
2022-10-08T17:01:52.211Z,92.30
2022-10-08T17:04:20.947Z,92.40
2022-10-08T17:06:48.397Z,92.50
2022-10-08T17:09:15.891Z,92.60
2022-10-08T17:11:43.888Z,92.70
2022-10-08T17:14:11.867Z,92.90
2022-10-08T17:16:39.744Z,92.90
2022-10-08T17:19:07.074Z,92.80
2022-10-08T17:21:35.124Z,92.50
2022-10-08T17:24:03.307Z,92.50
2022-10-08T17:26:31.030Z,92.70
2022-10-08T17:29:03.519Z,92.60
2022-10-08T17:31:31.776Z,92.60
2022-10-08T17:33:59.878Z,92.70
2022-10-08T17:36:29.773Z,93.00
2022-10-08T17:39:00.016Z,93.40
2022-10-08T17:41:29.445Z,93.50
2022-10-08T17:43:59.582Z,93.70
2022-10-08T17:46:32.579Z,93.90
2022-10-08T17:48:59.904Z,94.20
2022-10-08T17:51:29.261Z,94.40
2022-10-08T17:54:02.037Z,94.70
2022-10-08T17:56:30.292Z,95.10
2022-10-08T17:58:58.248Z,94.90
2022-10-08T18:01:28.660Z,95.10
2022-10-08T18:04:01.939Z,95.20
2022-10-08T18:06:30.520Z,95.30
2022-10-08T18:09:00.160Z,95.30
2022-10-08T18:11:29.092Z,95.30
2022-10-08T18:13:56.627Z,95.20
2022-10-08T18:16:25.324Z,95.30
2022-10-08T18:18:52.871Z,95.50
2022-10-08T18:21:21.036Z,95.60
2022-10-08T18:23:48.893Z,95.60
2022-10-08T18:26:17.950Z,95.80
2022-10-08T18:28:47.444Z,95.90
2022-10-08T18:31:16.155Z,96.10
2022-10-08T18:33:46.371Z,96.20
2022-10-08T18:36:14.848Z,96.30
2022-10-08T18:38:43.936Z,96.30
2022-10-08T18:41:12.067Z,96.50
2022-10-08T18:43:39.650Z,96.30
2022-10-08T18:46:07.191Z,96.20
2022-10-08T18:48:35.890Z,96.00
2022-10-08T18:51:14.550Z,95.60
2022-10-08T18:53:42.815Z,95.40
2022-10-08T18:56:13.502Z,95.20
2022-10-08T18:58:40.955Z,94.90
2022-10-08T19:01:19.337Z,94.70
2022-10-08T19:03:48.704Z,94.50
2022-10-08T19:06:17.492Z,94.20
2022-10-08T19:08:45.350Z,94.00
2022-10-08T19:11:18.647Z,93.90
2022-10-08T19:13:46.333Z,93.80
2022-10-08T19:16:15.437Z,93.70
2022-10-08T19:18:54.547Z,93.70
2022-10-08T19:21:23.260Z,93.50
2022-10-08T19:23:51.328Z,93.50
2022-10-08T19:26:19.339Z,93.50
2022-10-08T19:28:48.967Z,93.60
2022-10-08T19:31:17.904Z,93.70
2022-10-08T19:33:49.800Z,93.90
2022-10-08T19:36:18.066Z,94.00
2022-10-08T19:38:55.274Z,94.00
2022-10-08T19:41:23.565Z,94.00
2022-10-08T19:43:51.777Z,94.20
2022-10-08T19:46:19.839Z,94.40
2022-10-08T19:48:51.000Z,94.40
2022-10-08T19:51:19.071Z,94.60
2022-10-08T19:53:46.377Z,94.60
2022-10-08T19:56:15.265Z,94.70
2022-10-08T19:58:48.464Z,94.70
2022-10-08T20:01:30.324Z,94.70
2022-10-08T20:03:59.352Z,94.90
2022-10-08T20:06:28.935Z,94.90
2022-10-08T20:09:01.808Z,94.90
2022-10-08T20:11:31.320Z,95.00
2022-10-08T20:13:59.774Z,95.00
2022-10-08T20:16:29.562Z,95.10
2022-10-08T20:19:02.457Z,95.20
2022-10-08T20:21:31.729Z,95.20
2022-10-08T20:23:59.534Z,95.30
2022-10-08T20:26:29.589Z,95.40
2022-10-08T20:28:59.809Z,95.40
2022-10-08T20:31:32.837Z,95.60
2022-10-08T20:34:02.377Z,95.60
2022-10-08T20:36:31.001Z,95.60
2022-10-08T20:38:58.807Z,95.60
2022-10-08T20:41:30.660Z,95.60
2022-10-08T20:44:02.983Z,95.60
2022-10-08T20:46:32.218Z,95.60
2022-10-08T20:49:00.330Z,95.50
2022-10-08T20:51:28.960Z,95.60
2022-10-08T20:54:02.714Z,95.60
2022-10-08T20:56:34.730Z,95.60
2022-10-08T20:59:05.079Z,95.60
2022-10-08T21:01:35.334Z,95.60
2022-10-08T21:04:02.849Z,95.70
2022-10-08T21:06:34.730Z,95.70
2022-10-08T21:09:02.047Z,95.80
2022-10-08T21:11:30.410Z,96.00
2022-10-08T21:14:01.443Z,95.60
2022-10-08T21:16:31.735Z,95.50
2022-10-08T21:19:01.798Z,95.40
2022-10-08T21:21:30.891Z,95.30
2022-10-08T21:23:58.856Z,95.10
2022-10-08T21:26:36.031Z,94.90
2022-10-08T21:29:07.246Z,94.80
2022-10-08T21:31:36.613Z,94.60
2022-10-08T21:34:04.775Z,94.40
2022-10-08T21:36:34.843Z,94.20
2022-10-08T21:39:04.192Z,94.00
2022-10-08T21:41:33.287Z,93.90
2022-10-08T21:44:02.696Z,93.70
2022-10-08T21:46:32.931Z,93.70
2022-10-08T21:49:04.207Z,93.40
2022-10-08T21:51:32.339Z,93.30
2022-10-08T21:54:02.223Z,93.10
2022-10-08T21:56:32.127Z,93.00
2022-10-08T21:59:01.830Z,92.90
2022-10-08T22:01:30.397Z,92.80
2022-10-08T22:04:06.580Z,92.70
2022-10-08T22:06:37.220Z,92.60
2022-10-08T22:09:13.944Z,92.50
2022-10-08T22:11:41.560Z,92.40
2022-10-08T22:14:08.996Z,92.30
2022-10-08T22:16:36.543Z,92.10
2022-10-08T22:19:04.898Z,92.00
2022-10-08T22:21:33.472Z,91.90
2022-10-08T22:24:01.785Z,91.90
2022-10-08T22:26:49.293Z,92.00
2022-10-08T22:29:16.571Z,92.00
2022-10-08T22:31:44.131Z,92.00
2022-10-08T22:34:11.730Z,92.00
2022-10-08T22:36:44.027Z,91.90
2022-10-08T22:39:11.739Z,91.90
2022-10-08T22:41:39.734Z,91.90
2022-10-08T22:44:07.091Z,91.80
2022-10-08T22:46:37.721Z,91.70
2022-10-08T22:49:10.658Z,91.70
2022-10-08T22:51:38.378Z,91.60
2022-10-08T22:54:06.202Z,91.50
2022-10-08T22:56:33.482Z,91.50
2022-10-08T22:59:00.995Z,91.70
2022-10-08T23:01:29.380Z,91.40
2022-10-08T23:03:57.482Z,91.30
2022-10-08T23:06:34.818Z,91.30
2022-10-08T23:09:05.174Z,91.30
2022-10-08T23:11:32.692Z,91.30
2022-10-08T23:14:01.140Z,91.40
2022-10-08T23:16:29.722Z,91.40
2022-10-08T23:19:06.578Z,91.50
2022-10-08T23:21:34.575Z,91.50
2022-10-08T23:24:02.294Z,91.60
2022-10-08T23:26:29.692Z,91.60
2022-10-08T23:28:59.463Z,91.70
2022-10-08T23:31:29.343Z,91.70
2022-10-08T23:33:57.581Z,91.80
2022-10-08T23:36:27.950Z,91.90
2022-10-08T23:38:56.791Z,91.90
2022-10-08T23:41:25.349Z,91.90
2022-10-08T23:43:53.899Z,91.90
2022-10-08T23:46:23.771Z,91.80
2022-10-08T23:48:52.244Z,91.80
2022-10-08T23:51:20.770Z,92.10
2022-10-08T23:53:50.594Z,91.60
2022-10-08T23:56:18.623Z,91.60
2022-10-08T23:58:45.846Z,91.50
